sensor_id;sensor_type;location;lat;lon;timestamp;pressure;altitude;pressure_sealevel;temperature;humidity
10099;BME280;5089;42.656;23.374;2023-02-12T00:10:14;95604.69;;;1.84;39.31
10099;BME280;5089;42.656;23.374;2023-02-12T00:12:49;95652.59;;;1.89;39.30
10099;BME280;5089;42.656;23.374;2023-02-12T00:15:25;95646.72;;;2.00;38.86
10099;BME280;5089;42.656;23.374;2023-02-12T00:18:06;95646.28;;;1.90;38.95
10099;BME280;5089;42.656;23.374;2023-02-12T00:21:00;95667.97;;;2.13;39.26
10099;BME280;5089;42.656;23.374;2023-02-12T00:23:31;95649.13;;;1.89;38.70
10099;BME280;5089;42.656;23.374;2023-02-12T00:26:15;95652.81;;;1.94;39.26
10099;BME280;5089;42.656;23.374;2023-02-12T00:37:34;95759.75;;;2.88;38.74
10099;BME280;5089;42.656;23.374;2023-02-12T00:40:01;95718.69;;;2.64;39.05
10099;BME280;5089;42.656;23.374;2023-02-12T00:42:31;95621.22;;;2.06;38.69
10099;BME280;5089;42.656;23.374;2023-02-12T00:44:58;95642.53;;;2.39;38.78
10099;BME280;5089;42.656;23.374;2023-02-12T00:47:25;95727.47;;;2.78;38.32
10099;BME280;5089;42.656;23.374;2023-02-12T00:49:53;95697.44;;;2.58;38.97
10099;BME280;5089;42.656;23.374;2023-02-12T00:52:20;95720.31;;;2.72;38.37
10099;BME280;5089;42.656;23.374;2023-02-12T00:54:47;95599.03;;;2.20;38.40
10099;BME280;5089;42.656;23.374;2023-02-12T00:57:14;95611.69;;;2.25;38.42
10099;BME280;5089;42.656;23.374;2023-02-12T00:59:45;95600.25;;;2.24;38.07
10099;BME280;5089;42.656;23.374;2023-02-12T01:02:15;95605.56;;;2.24;38.02
10099;BME280;5089;42.656;23.374;2023-02-12T01:04:56;95583.72;;;2.15;38.15
10099;BME280;5089;42.656;23.374;2023-02-12T01:07:41;95592.09;;;2.26;38.46
10099;BME280;5089;42.656;23.374;2023-02-12T01:10:29;95585.16;;;2.25;38.51
10099;BME280;5089;42.656;23.374;2023-02-12T01:13:03;95673.34;;;2.66;38.21
10099;BME280;5089;42.656;23.374;2023-02-12T01:15:59;95590.25;;;2.19;38.65
10099;BME280;5089;42.656;23.374;2023-02-12T01:18:33;95651.50;;;2.44;38.61
10099;BME280;5089;42.656;23.374;2023-02-12T01:21:08;95599.63;;;2.02;38.77
10099;BME280;5089;42.656;23.374;2023-02-12T01:23:52;95595.78;;;2.11;38.66
10099;BME280;5089;42.656;23.374;2023-02-12T01:26:22;95616.16;;;2.11;38.95
10099;BME280;5089;42.656;23.374;2023-02-12T01:28:53;95664.97;;;2.43;39.00
10099;BME280;5089;42.656;23.374;2023-02-12T01:31:37;95639.03;;;2.25;38.94
10099;BME280;5089;42.656;23.374;2023-02-12T01:34:10;95736.28;;;2.92;39.25
10099;BME280;5089;42.656;23.374;2023-02-12T01:36:37;95737.09;;;3.05;39.02
10099;BME280;5089;42.656;23.374;2023-02-12T01:39:05;95716.28;;;2.96;39.32
10099;BME280;5089;42.656;23.374;2023-02-12T01:41:33;95707.25;;;2.90;38.77
10099;BME280;5089;42.656;23.374;2023-02-12T01:44:09;95717.28;;;3.14;39.38
10099;BME280;5089;42.656;23.374;2023-02-12T01:46:38;95694.41;;;3.00;39.31
10099;BME280;5089;42.656;23.374;2023-02-12T01:49:09;95710.53;;;3.05;39.22
10099;BME280;5089;42.656;23.374;2023-02-12T01:51:38;95685.63;;;2.93;39.43
10099;BME280;5089;42.656;23.374;2023-02-12T01:54:07;95698.09;;;2.93;40.01
10099;BME280;5089;42.656;23.374;2023-02-12T01:56:36;95679.09;;;2.89;40.14
10099;BME280;5089;42.656;23.374;2023-02-12T01:59:04;95690.53;;;2.90;39.90
10099;BME280;5089;42.656;23.374;2023-02-12T02:01:32;95618.03;;;2.50;39.65
10099;BME280;5089;42.656;23.374;2023-02-12T02:04:05;95697.88;;;2.68;40.31
10099;BME280;5089;42.656;23.374;2023-02-12T02:06:35;95688.47;;;2.59;40.74
10099;BME280;5089;42.656;23.374;2023-02-12T02:09:04;95697.06;;;2.74;39.96
10099;BME280;5089;42.656;23.374;2023-02-12T02:11:31;95696.22;;;2.54;40.75
10099;BME280;5089;42.656;23.374;2023-02-12T02:14:16;95652.28;;;2.25;40.54
10099;BME280;5089;42.656;23.374;2023-02-12T02:17:19;95698.47;;;2.57;40.82
10099;BME280;5089;42.656;23.374;2023-02-12T02:20:15;95720.72;;;2.56;41.83
10099;BME280;5089;42.656;23.374;2023-02-12T02:22:51;95683.53;;;2.43;41.83
10099;BME280;5089;42.656;23.374;2023-02-12T02:25:37;95652.06;;;2.13;41.94
10099;BME280;5089;42.656;23.374;2023-02-12T02:28:16;95621.59;;;1.83;42.09
10099;BME280;5089;42.656;23.374;2023-02-12T02:30:54;95687.94;;;2.09;42.43
10099;BME280;5089;42.656;23.374;2023-02-12T02:33:35;95700.84;;;2.26;42.01
10099;BME280;5089;42.656;23.374;2023-02-12T02:36:13;95675.72;;;2.08;42.19
10099;BME280;5089;42.656;23.374;2023-02-12T02:38:45;95685.94;;;2.25;42.45
10099;BME280;5089;42.656;23.374;2023-02-12T02:41:18;95690.50;;;2.44;42.34
10099;BME280;5089;42.656;23.374;2023-02-12T02:43:48;95689.47;;;2.45;42.26
10099;BME280;5089;42.656;23.374;2023-02-12T02:46:22;95697.41;;;2.38;42.06
10099;BME280;5089;42.656;23.374;2023-02-12T02:48:53;95593.22;;;1.71;42.32
10099;BME280;5089;42.656;23.374;2023-02-12T02:51:25;95713.75;;;2.42;42.26
10099;BME280;5089;42.656;23.374;2023-02-12T02:53:57;95699.28;;;2.51;42.26
10099;BME280;5089;42.656;23.374;2023-02-12T02:56:28;95723.78;;;2.66;42.63
10099;BME280;5089;42.656;23.374;2023-02-12T02:59:00;95721.97;;;2.73;42.35
10099;BME280;5089;42.656;23.374;2023-02-12T03:01:32;95706.84;;;2.67;41.94
10099;BME280;5089;42.656;23.374;2023-02-12T03:04:05;95723.59;;;2.87;41.55
10099;BME280;5089;42.656;23.374;2023-02-12T03:06:35;95687.47;;;2.73;41.97
10099;BME280;5089;42.656;23.374;2023-02-12T03:09:10;95715.47;;;2.95;41.53
10099;BME280;5089;42.656;23.374;2023-02-12T03:11:39;95697.47;;;2.97;41.67
10099;BME280;5089;42.656;23.374;2023-02-12T03:14:09;95688.50;;;3.05;41.50
10099;BME280;5089;42.656;23.374;2023-02-12T03:16:43;95720.53;;;3.29;41.37
10099;BME280;5089;42.656;23.374;2023-02-12T03:19:15;95705.22;;;3.31;41.46
10099;BME280;5089;42.656;23.374;2023-02-12T03:21:46;95716.66;;;3.45;41.27
10099;BME280;5089;42.656;23.374;2023-02-12T03:24:20;95648.03;;;3.22;41.13
10099;BME280;5089;42.656;23.374;2023-02-12T03:26:50;95701.50;;;3.65;40.29
10099;BME280;5089;42.656;23.374;2023-02-12T03:29:19;95694.09;;;3.74;40.16
10099;BME280;5089;42.656;23.374;2023-02-12T03:32:05;95702.69;;;3.76;40.15
10099;BME280;5089;42.656;23.374;2023-02-12T03:34:44;95669.75;;;3.83;39.75
10099;BME280;5089;42.656;23.374;2023-02-12T03:37:15;95712.03;;;3.98;39.58
10099;BME280;5089;42.656;23.374;2023-02-12T03:39:48;95681.38;;;3.89;40.48
10099;BME280;5089;42.656;23.374;2023-02-12T03:42:20;95691.53;;;4.05;40.05
10099;BME280;5089;42.656;23.374;2023-02-12T03:44:51;95636.78;;;3.84;39.90
10099;BME280;5089;42.656;23.374;2023-02-12T03:47:26;95707.69;;;4.10;40.04
10099;BME280;5089;42.656;23.374;2023-02-12T03:50:06;95635.06;;;3.52;40.56
10099;BME280;5089;42.656;23.374;2023-02-12T03:52:36;95665.28;;;3.64;40.89
10099;BME280;5089;42.656;23.374;2023-02-12T03:55:05;95603.47;;;3.18;41.12
10099;BME280;5089;42.656;23.374;2023-02-12T03:57:39;95663.09;;;3.42;41.11
10099;BME280;5089;42.656;23.374;2023-02-12T04:00:13;95716.22;;;3.55;41.70
10099;BME280;5089;42.656;23.374;2023-02-12T04:02:44;95631.91;;;2.91;41.71
10099;BME280;5089;42.656;23.374;2023-02-12T04:05:18;95689.28;;;3.38;42.18
10099;BME280;5089;42.656;23.374;2023-02-12T04:07:47;95698.69;;;3.41;42.04
10099;BME280;5089;42.656;23.374;2023-02-12T04:10:15;95663.56;;;3.12;42.53
10099;BME280;5089;42.656;23.374;2023-02-12T04:12:46;95635.38;;;2.85;42.12
10099;BME280;5089;42.656;23.374;2023-02-12T04:15:28;95651.94;;;3.00;42.38
10099;BME280;5089;42.656;23.374;2023-02-12T04:18:06;95688.69;;;3.23;42.38
10099;BME280;5089;42.656;23.374;2023-02-12T04:20:41;95682.34;;;3.17;42.17
10099;BME280;5089;42.656;23.374;2023-02-12T04:23:17;95700.94;;;3.24;42.82
10099;BME280;5089;42.656;23.374;2023-02-12T04:25:53;95700.31;;;3.09;43.12
10099;BME280;5089;42.656;23.374;2023-02-12T04:28:31;95687.25;;;2.88;43.73
10099;BME280;5089;42.656;23.374;2023-02-12T04:31:03;95705.25;;;2.99;43.35
10099;BME280;5089;42.656;23.374;2023-02-12T04:33:38;95710.16;;;2.95;43.68
10099;BME280;5089;42.656;23.374;2023-02-12T04:36:11;95678.25;;;2.69;43.89
10099;BME280;5089;42.656;23.374;2023-02-12T04:38:42;95641.72;;;2.51;44.45
10099;BME280;5089;42.656;23.374;2023-02-12T04:41:11;95655.19;;;2.56;43.76
10099;BME280;5089;42.656;23.374;2023-02-12T04:43:39;95712.16;;;2.93;44.15
10099;BME280;5089;42.656;23.374;2023-02-12T04:46:08;95694.81;;;2.84;43.83
10099;BME280;5089;42.656;23.374;2023-02-12T04:48:48;95718.13;;;3.02;43.74
10099;BME280;5089;42.656;23.374;2023-02-12T04:51:17;95704.41;;;2.85;44.12
10099;BME280;5089;42.656;23.374;2023-02-12T04:53:44;95713.38;;;2.84;44.01
10099;BME280;5089;42.656;23.374;2023-02-12T04:56:12;95706.06;;;2.86;43.91
10099;BME280;5089;42.656;23.374;2023-02-12T04:58:40;95691.56;;;2.82;44.07
10099;BME280;5089;42.656;23.374;2023-02-12T05:01:08;95707.28;;;2.84;44.18
10099;BME280;5089;42.656;23.374;2023-02-12T05:03:37;95652.13;;;2.53;44.14
10099;BME280;5089;42.656;23.374;2023-02-12T05:06:05;95699.94;;;2.86;44.38
10099;BME280;5089;42.656;23.374;2023-02-12T05:08:33;95694.59;;;2.72;44.43
10099;BME280;5089;42.656;23.374;2023-02-12T05:11:05;95696.47;;;2.98;44.46
10099;BME280;5089;42.656;23.374;2023-02-12T05:13:33;95708.50;;;3.07;44.14
10099;BME280;5089;42.656;23.374;2023-02-12T05:16:03;95722.00;;;3.12;44.52
10099;BME280;5089;42.656;23.374;2023-02-12T05:18:30;95724.06;;;3.17;44.11
10099;BME280;5089;42.656;23.374;2023-02-12T05:21:02;95654.38;;;2.62;44.70
10099;BME280;5089;42.656;23.374;2023-02-12T05:23:32;95724.44;;;2.88;44.71
10099;BME280;5089;42.656;23.374;2023-02-12T05:26:00;95720.97;;;2.81;44.62
10099;BME280;5089;42.656;23.374;2023-02-12T05:28:28;95739.53;;;2.87;45.37
10099;BME280;5089;42.656;23.374;2023-02-12T05:30:58;95750.97;;;2.88;46.82
10099;BME280;5089;42.656;23.374;2023-02-12T05:33:26;95756.28;;;2.81;47.34
10099;BME280;5089;42.656;23.374;2023-02-12T05:35:53;95699.47;;;2.49;47.31
10099;BME280;5089;42.656;23.374;2023-02-12T05:38:21;95773.44;;;2.78;47.01
10099;BME280;5089;42.656;23.374;2023-02-12T05:40:48;95742.38;;;2.59;47.35
10099;BME280;5089;42.656;23.374;2023-02-12T05:43:16;95774.22;;;2.66;47.72
10099;BME280;5089;42.656;23.374;2023-02-12T05:45:43;95769.53;;;2.68;47.38
10099;BME280;5089;42.656;23.374;2023-02-12T05:48:10;95761.78;;;2.73;47.24
10099;BME280;5089;42.656;23.374;2023-02-12T05:50:36;95728.81;;;2.28;48.95
10099;BME280;5089;42.656;23.374;2023-02-12T05:53:03;95755.16;;;2.43;49.14
10099;BME280;5089;42.656;23.374;2023-02-12T05:55:32;95767.22;;;2.39;50.41
10099;BME280;5089;42.656;23.374;2023-02-12T05:57:59;95756.56;;;2.26;51.97
10099;BME280;5089;42.656;23.374;2023-02-12T06:00:26;95781.50;;;2.38;52.24
10099;BME280;5089;42.656;23.374;2023-02-12T06:02:53;95700.31;;;1.89;52.34
10099;BME280;5089;42.656;23.374;2023-02-12T06:05:20;95792.75;;;2.46;52.56
10099;BME280;5089;42.656;23.374;2023-02-12T06:07:48;95658.03;;;1.68;51.88
10099;BME280;5089;42.656;23.374;2023-02-12T06:10:29;95713.25;;;2.18;51.68
10099;BME280;5089;42.656;23.374;2023-02-12T06:12:58;95643.81;;;1.89;51.86
10099;BME280;5089;42.656;23.374;2023-02-12T06:18:01;95750.97;;;2.74;52.09
10099;BME280;5089;42.656;23.374;2023-02-12T06:20:28;95758.31;;;2.79;52.31
10099;BME280;5089;42.656;23.374;2023-02-12T06:22:55;95801.69;;;3.12;52.57
10099;BME280;5089;42.656;23.374;2023-02-12T06:25:22;95803.28;;;3.00;53.59
10099;BME280;5089;42.656;23.374;2023-02-12T06:27:49;95748.09;;;2.76;53.79
10099;BME280;5089;42.656;23.374;2023-02-12T06:30:54;95769.69;;;2.60;55.66
10099;BME280;5089;42.656;23.374;2023-02-12T06:33:21;95770.59;;;2.80;55.46
10099;BME280;5089;42.656;23.374;2023-02-12T06:35:48;95723.97;;;2.58;55.23
10099;BME280;5089;42.656;23.374;2023-02-12T06:38:15;95785.47;;;2.81;56.77
10099;BME280;5089;42.656;23.374;2023-02-12T06:40:42;95768.13;;;2.85;56.56
10099;BME280;5089;42.656;23.374;2023-02-12T06:43:10;95789.81;;;2.95;58.49
10099;BME280;5089;42.656;23.374;2023-02-12T06:45:37;95788.56;;;2.85;58.72
10099;BME280;5089;42.656;23.374;2023-02-12T06:48:09;95791.81;;;2.80;59.59
10099;BME280;5089;42.656;23.374;2023-02-12T06:50:36;95763.59;;;2.53;60.82
10099;BME280;5089;42.656;23.374;2023-02-12T06:53:12;95802.03;;;2.76;60.94
10099;BME280;5089;42.656;23.374;2023-02-12T06:56:00;95657.88;;;1.83;61.89
10099;BME280;5089;42.656;23.374;2023-02-12T06:58:28;95656.41;;;1.74;62.17
10099;BME280;5089;42.656;23.374;2023-02-12T07:01:07;95704.66;;;2.03;62.39
10099;BME280;5089;42.656;23.374;2023-02-12T07:03:47;95736.13;;;2.19;62.22
10099;BME280;5089;42.656;23.374;2023-02-12T07:06:33;95690.84;;;2.14;62.38
10099;BME280;5089;42.656;23.374;2023-02-12T07:09:05;95803.25;;;2.87;61.88
10099;BME280;5089;42.656;23.374;2023-02-12T07:11:37;95775.06;;;2.73;61.83
10099;BME280;5089;42.656;23.374;2023-02-12T07:14:13;95751.72;;;2.49;61.89
10099;BME280;5089;42.656;23.374;2023-02-12T07:16:41;95661.81;;;1.93;61.66
10099;BME280;5089;42.656;23.374;2023-02-12T07:19:16;95651.53;;;1.77;61.80
10099;BME280;5089;42.656;23.374;2023-02-12T07:21:45;95760.31;;;3.95;100.00
10099;BME280;5089;42.656;23.374;2023-02-12T07:24:13;95780.84;;;3.68;66.97
10099;BME280;5089;42.656;23.374;2023-02-12T07:26:43;95771.63;;;3.58;62.58
10099;BME280;5089;42.656;23.374;2023-02-12T07:29:11;95795.97;;;3.42;61.91
10099;BME280;5089;42.656;23.374;2023-02-12T07:31:38;95800.47;;;3.41;61.70
10099;BME280;5089;42.656;23.374;2023-02-12T07:34:06;95781.25;;;3.19;61.74
10099;BME280;5089;42.656;23.374;2023-02-12T07:36:36;95812.31;;;3.25;62.21
10099;BME280;5089;42.656;23.374;2023-02-12T07:39:03;95779.56;;;2.86;62.69
10099;BME280;5089;42.656;23.374;2023-02-12T07:41:31;95812.25;;;2.99;63.23
10099;BME280;5089;42.656;23.374;2023-02-12T07:44:01;95813.72;;;2.95;63.13
10099;BME280;5089;42.656;23.374;2023-02-12T07:46:32;95797.13;;;2.80;63.35
10099;BME280;5089;42.656;23.374;2023-02-12T07:49:02;95749.91;;;2.56;63.52
10099;BME280;5089;42.656;23.374;2023-02-12T07:51:30;95709.63;;;2.26;63.55
10099;BME280;5089;42.656;23.374;2023-02-12T07:54:03;95797.09;;;2.67;63.78
10099;BME280;5089;42.656;23.374;2023-02-12T07:56:33;95800.16;;;2.64;64.33
10099;BME280;5089;42.656;23.374;2023-02-12T07:59:53;95813.88;;;2.87;64.37
10099;BME280;5089;42.656;23.374;2023-02-12T08:02:32;95816.44;;;2.54;65.71
10099;BME280;5089;42.656;23.374;2023-02-12T08:05:15;95749.19;;;2.28;65.42
10099;BME280;5089;42.656;23.374;2023-02-12T08:08:11;95821.16;;;2.59;66.07
10099;BME280;5089;42.656;23.374;2023-02-12T11:35:51;95880.81;;;3.76;68.01
10099;BME280;5089;42.656;23.374;2023-02-12T11:38:35;95814.16;;;3.64;66.59
10099;BME280;5089;42.656;23.374;2023-02-12T11:41:22;95901.97;;;4.68;64.57
10099;BME280;5089;42.656;23.374;2023-02-12T11:43:51;95918.47;;;4.96;63.15
10099;BME280;5089;42.656;23.374;2023-02-12T11:46:24;95846.59;;;4.83;61.72
10099;BME280;5089;42.656;23.374;2023-02-12T11:48:55;95842.88;;;4.90;60.36
10099;BME280;5089;42.656;23.374;2023-02-12T11:51:29;95882.44;;;5.31;60.20
10099;BME280;5089;42.656;23.374;2023-02-12T11:56:59;95904.97;;;5.67;59.23
10099;BME280;5089;42.656;23.374;2023-02-12T11:59:34;95876.31;;;5.56;58.58
10099;BME280;5089;42.656;23.374;2023-02-12T12:02:13;95918.78;;;5.88;58.20
10099;BME280;5089;42.656;23.374;2023-02-12T12:04:43;95894.66;;;5.77;57.58
10099;BME280;5089;42.656;23.374;2023-02-12T12:07:18;95926.19;;;5.86;57.13
10099;BME280;5089;42.656;23.374;2023-02-12T12:09:50;95913.91;;;5.79;57.19
10099;BME280;5089;42.656;23.374;2023-02-12T12:12:36;95884.22;;;5.69;56.87
10099;BME280;5089;42.656;23.374;2023-02-12T12:15:11;95907.47;;;5.93;56.80
10099;BME280;5089;42.656;23.374;2023-02-12T12:18:03;95880.69;;;5.75;56.81
10099;BME280;5089;42.656;23.374;2023-02-12T12:20:53;95896.25;;;5.78;56.73
10099;BME280;5089;42.656;23.374;2023-02-12T12:23:25;95896.25;;;5.78;56.73
10099;BME280;5089;42.656;23.374;2023-02-12T12:26:01;95892.34;;;5.80;56.82
10099;BME280;5089;42.656;23.374;2023-02-12T12:28:35;95902.75;;;5.95;56.05
10099;BME280;5089;42.656;23.374;2023-02-12T12:31:09;95915.53;;;6.11;57.15
10099;BME280;5089;42.656;23.374;2023-02-12T12:33:50;95876.06;;;5.95;56.17
10099;BME280;5089;42.656;23.374;2023-02-12T12:39:34;95859.72;;;5.78;55.81
10099;BME280;5089;42.656;23.374;2023-02-12T12:42:17;95897.84;;;5.92;56.30
10099;BME280;5089;42.656;23.374;2023-02-12T12:45:03;95884.50;;;5.92;55.45
10099;BME280;5089;42.656;23.374;2023-02-12T12:47:39;95906.63;;;6.17;55.65
10099;BME280;5089;42.656;23.374;2023-02-12T12:50:26;95909.25;;;6.24;55.21
10099;BME280;5089;42.656;23.374;2023-02-12T12:53:37;95928.88;;;6.36;54.81
10099;BME280;5089;42.656;23.374;2023-02-12T13:03:24;95941.91;;;6.69;56.13
10099;BME280;5089;42.656;23.374;2023-02-12T13:09:46;95838.34;;;5.85;54.46
10099;BME280;5089;42.656;23.374;2023-02-12T13:12:31;95894.22;;;6.29;54.86
10099;BME280;5089;42.656;23.374;2023-02-12T13:16:51;95829.41;;;5.73;55.37
10099;BME280;5089;42.656;23.374;2023-02-12T13:18:51;95952.84;;;6.42;56.97
10099;BME280;5089;42.656;23.374;2023-02-12T13:21:33;95949.16;;;6.43;56.73
10099;BME280;5089;42.656;23.374;2023-02-12T13:27:51;95949.84;;;6.32;55.70
10099;BME280;5089;42.656;23.374;2023-02-12T13:30:34;95954.63;;;6.24;55.89
10099;BME280;5089;42.656;23.374;2023-02-12T13:33:18;95881.03;;;5.85;56.93
10099;BME280;5089;42.656;23.374;2023-02-12T13:46:20;95945.47;;;5.82;57.03
10099;BME280;5089;42.656;23.374;2023-02-12T13:57:06;95836.81;;;5.08;56.78
10099;BME280;5089;42.656;23.374;2023-02-12T14:54:00;95919.13;;;4.85;59.36
10099;BME280;5089;42.656;23.374;2023-02-12T14:56:55;95935.13;;;4.72;59.62
10099;BME280;5089;42.656;23.374;2023-02-12T14:59:57;96041.72;;;5.36;59.53
10099;BME280;5089;42.656;23.374;2023-02-12T15:02:28;96050.88;;;5.53;59.27
10099;BME280;5089;42.656;23.374;2023-02-12T15:05:05;96059.28;;;5.57;60.10
10099;BME280;5089;42.656;23.374;2023-02-12T15:07:57;96034.88;;;5.53;59.86
10099;BME280;5089;42.656;23.374;2023-02-12T15:10:39;96004.75;;;5.52;59.04
10099;BME280;5089;42.656;23.374;2023-02-12T15:13:33;95976.19;;;5.15;59.13
10099;BME280;5089;42.656;23.374;2023-02-12T15:20:00;96098.97;;;5.91;58.53
10099;BME280;5089;42.656;23.374;2023-02-12T15:22:35;96095.47;;;5.97;58.36
10099;BME280;5089;42.656;23.374;2023-02-12T15:25:16;96040.41;;;5.65;60.54
10099;BME280;5089;42.656;23.374;2023-02-12T15:27:48;96085.84;;;5.89;60.14
10099;BME280;5089;42.656;23.374;2023-02-12T15:30:21;96119.06;;;6.00;57.98
10099;BME280;5089;42.656;23.374;2023-02-12T15:32:48;96088.75;;;5.75;57.93
10099;BME280;5089;42.656;23.374;2023-02-12T15:35:23;96123.75;;;6.04;58.79
10099;BME280;5089;42.656;23.374;2023-02-12T15:37:53;96099.81;;;5.85;59.01
10099;BME280;5089;42.656;23.374;2023-02-12T15:40:21;96138.13;;;6.10;57.87
10099;BME280;5089;42.656;23.374;2023-02-12T15:42:53;96137.50;;;6.08;58.21
10099;BME280;5089;42.656;23.374;2023-02-12T15:45:23;96131.38;;;6.01;58.04
10099;BME280;5089;42.656;23.374;2023-02-12T15:48:06;96140.00;;;6.03;59.63
10099;BME280;5089;42.656;23.374;2023-02-12T15:50:45;96137.91;;;6.05;58.31
10099;BME280;5089;42.656;23.374;2023-02-12T15:53:18;96139.56;;;6.06;60.94
10099;BME280;5089;42.656;23.374;2023-02-12T15:56:52;96141.38;;;6.12;59.71
10099;BME280;5089;42.656;23.374;2023-02-12T15:59:21;96095.72;;;5.82;59.03
10099;BME280;5089;42.656;23.374;2023-02-12T16:01:57;96086.75;;;5.64;59.28
10099;BME280;5089;42.656;23.374;2023-02-12T16:04:52;96164.44;;;6.00;59.82
10099;BME280;5089;42.656;23.374;2023-02-12T16:07:35;96156.84;;;5.97;58.72
10099;BME280;5089;42.656;23.374;2023-02-12T16:10:06;96153.78;;;5.87;58.67
10099;BME280;5089;42.656;23.374;2023-02-12T16:12:34;96159.75;;;5.82;59.01
10099;BME280;5089;42.656;23.374;2023-02-12T16:15:03;96166.72;;;5.90;60.37
10099;BME280;5089;42.656;23.374;2023-02-12T16:17:33;96179.22;;;5.96;60.40
10099;BME280;5089;42.656;23.374;2023-02-12T16:20:02;96181.91;;;5.89;60.88
10099;BME280;5089;42.656;23.374;2023-02-12T16:22:34;96189.09;;;5.76;59.38
10099;BME280;5089;42.656;23.374;2023-02-12T16:25:09;96189.69;;;5.84;60.46
10099;BME280;5089;42.656;23.374;2023-02-12T16:27:39;96183.94;;;5.81;60.90
10099;BME280;5089;42.656;23.374;2023-02-12T16:30:23;96198.34;;;5.80;59.95
10099;BME280;5089;42.656;23.374;2023-02-12T16:32:51;96203.03;;;5.78;59.83
10099;BME280;5089;42.656;23.374;2023-02-12T16:35:24;96214.75;;;5.77;60.96
10099;BME280;5089;42.656;23.374;2023-02-12T16:37:52;96193.25;;;5.59;59.67
10099;BME280;5089;42.656;23.374;2023-02-12T16:40:32;96201.03;;;5.67;59.72
10099;BME280;5089;42.656;23.374;2023-02-12T16:43:23;96201.63;;;5.69;61.57
10099;BME280;5089;42.656;23.374;2023-02-12T16:46:01;96223.19;;;5.74;61.39
10099;BME280;5089;42.656;23.374;2023-02-12T16:48:29;96220.94;;;5.71;60.63
10099;BME280;5089;42.656;23.374;2023-02-12T16:50:58;96217.66;;;5.62;60.80
10099;BME280;5089;42.656;23.374;2023-02-12T16:53:38;96214.78;;;5.70;61.86
10099;BME280;5089;42.656;23.374;2023-02-12T16:56:16;96175.03;;;5.42;60.88
10099;BME280;5089;42.656;23.374;2023-02-12T16:58:47;96221.94;;;5.70;61.58
10099;BME280;5089;42.656;23.374;2023-02-12T17:01:16;96209.88;;;5.61;62.59
10099;BME280;5089;42.656;23.374;2023-02-12T17:03:44;96232.63;;;5.70;63.28
10099;BME280;5089;42.656;23.374;2023-02-12T17:06:16;96175.03;;;5.23;62.43
10099;BME280;5089;42.656;23.374;2023-02-12T17:08:51;96159.06;;;5.10;62.82
10099;BME280;5089;42.656;23.374;2023-02-12T17:11:50;96238.19;;;5.62;62.93
10099;BME280;5089;42.656;23.374;2023-02-12T17:14:30;96232.84;;;5.48;62.83
10099;BME280;5089;42.656;23.374;2023-02-12T17:16:57;96252.94;;;5.58;63.06
10099;BME280;5089;42.656;23.374;2023-02-12T17:19:24;96261.38;;;5.54;61.97
10099;BME280;5089;42.656;23.374;2023-02-12T17:21:51;96254.38;;;5.53;62.51
10099;BME280;5089;42.656;23.374;2023-02-12T17:24:21;96285.78;;;5.58;63.05
10099;BME280;5089;42.656;23.374;2023-02-12T17:27:02;96285.56;;;5.53;62.60
10099;BME280;5089;42.656;23.374;2023-02-12T17:29:32;96295.19;;;5.47;62.94
10099;BME280;5089;42.656;23.374;2023-02-12T17:31:59;96236.53;;;5.08;63.03
10099;BME280;5089;42.656;23.374;2023-02-12T17:34:26;96289.03;;;5.47;62.63
10099;BME280;5089;42.656;23.374;2023-02-12T17:36:53;96293.56;;;5.40;62.89
10099;BME280;5089;42.656;23.374;2023-02-12T17:39:20;96267.72;;;5.27;63.81
10099;BME280;5089;42.656;23.374;2023-02-12T17:41:47;96280.84;;;5.35;63.59
10099;BME280;5089;42.656;23.374;2023-02-12T17:44:15;96300.53;;;5.41;64.15
10099;BME280;5089;42.656;23.374;2023-02-12T17:46:42;96299.72;;;5.40;64.43
10099;BME280;5089;42.656;23.374;2023-02-12T17:49:09;96283.72;;;5.27;63.94
10099;BME280;5089;42.656;23.374;2023-02-12T17:51:36;96306.09;;;5.39;64.49
10099;BME280;5089;42.656;23.374;2023-02-12T17:54:04;96305.06;;;5.40;64.45
10099;BME280;5089;42.656;23.374;2023-02-12T17:56:32;96277.38;;;5.22;64.42
10099;BME280;5089;42.656;23.374;2023-02-12T17:58:59;96309.34;;;5.35;64.11
10099;BME280;5089;42.656;23.374;2023-02-12T18:09:25;96315.66;;;6.83;57.94
10099;BME280;5089;42.656;23.374;2023-02-12T18:11:53;96245.88;;;6.16;57.64
10099;BME280;5089;42.656;23.374;2023-02-12T18:14:20;96316.53;;;6.06;57.63
10099;BME280;5089;42.656;23.374;2023-02-12T18:16:47;96313.25;;;5.85;60.21
10099;BME280;5089;42.656;23.374;2023-02-12T18:19:13;96319.00;;;5.62;60.61
10099;BME280;5089;42.656;23.374;2023-02-12T18:21:40;96316.13;;;5.50;61.49
10099;BME280;5089;42.656;23.374;2023-02-12T18:24:07;96303.00;;;5.42;62.13
10099;BME280;5089;42.656;23.374;2023-02-12T18:26:36;96296.84;;;5.42;61.47
10099;BME280;5089;42.656;23.374;2023-02-12T18:29:02;96322.69;;;5.48;61.87
10099;BME280;5089;42.656;23.374;2023-02-12T18:31:31;96303.63;;;5.44;63.07
10099;BME280;5089;42.656;23.374;2023-02-12T18:34:00;96261.97;;;5.17;62.58
10099;BME280;5089;42.656;23.374;2023-02-12T18:36:27;96316.53;;;5.54;63.45
10099;BME280;5089;42.656;23.374;2023-02-12T18:38:54;96317.78;;;5.51;62.96
10099;BME280;5089;42.656;23.374;2023-02-12T18:41:23;96317.78;;;5.51;63.10
10099;BME280;5089;42.656;23.374;2023-02-12T18:43:52;96210.88;;;4.81;62.07
10099;BME280;5089;42.656;23.374;2023-02-12T18:46:21;96316.94;;;5.51;62.39
10099;BME280;5089;42.656;23.374;2023-02-12T18:48:49;96255.22;;;5.02;62.24
10099;BME280;5089;42.656;23.374;2023-02-12T18:51:18;96327.22;;;5.34;61.42
10099;BME280;5089;42.656;23.374;2023-02-12T18:53:45;96332.34;;;5.42;61.65
10099;BME280;5089;42.656;23.374;2023-02-12T18:56:12;96337.06;;;5.40;62.11
10099;BME280;5089;42.656;23.374;2023-02-12T18:58:55;96325.97;;;5.30;62.30
10099;BME280;5089;42.656;23.374;2023-02-12T19:01:23;96300.91;;;5.05;62.42
10099;BME280;5089;42.656;23.374;2023-02-12T19:03:57;96341.97;;;5.30;62.84
10099;BME280;5089;42.656;23.374;2023-02-12T19:06:24;96353.47;;;5.37;62.28
10099;BME280;5089;42.656;23.374;2023-02-12T19:08:53;96360.41;;;5.38;62.97
10099;BME280;5089;42.656;23.374;2023-02-12T19:11:21;96346.88;;;5.33;62.28
10099;BME280;5089;42.656;23.374;2023-02-12T19:13:50;96353.88;;;5.34;62.43
10099;BME280;5089;42.656;23.374;2023-02-12T19:16:19;96362.06;;;5.39;63.22